Conway, Arkansas
Current Conditions -  °F | °C
As of 12:58 PM on Friday 28 Nov 2014 (Local Time) from KLRF Reporting Station
Clear Clear  
Wind Chill: 55°   Ceiling: Unl
Heat Index: 55°   Visibility: 10mi
Dew Point: 32°   Wind: 6mph
Humidity: 41%   Direction: NA
Pressure: 30.19"   Gusts: 16mph
Location:  35.09°N, 92.44°W
Report Text: KLRF 281858Z AUTO VRB05G14KT 10SM CLR 13/00 A3019 RMK AO2 SLP228 T01300000 $
Loading
Personal Weather Stations






























Interactive Weather Map New forecast layout! Learn more

10-Day Weather Forecast

Advertisements
Track Severe Weather on mobile